createdAt,value
2022-09-15T00:01:24.217Z,50.96
2022-09-15T00:03:52.927Z,50.84
2022-09-15T00:06:22.526Z,50.76
2022-09-15T00:08:50.828Z,50.93
2022-09-15T00:11:22.647Z,50.78
2022-09-15T00:13:54.205Z,50.80
2022-09-15T00:16:24.183Z,50.61
2022-09-15T00:18:52.710Z,50.81
2022-09-15T00:21:26.098Z,50.58
2022-09-15T00:23:54.491Z,50.71
2022-09-15T00:26:25.517Z,50.60
2022-09-15T00:28:54.395Z,50.64
2022-09-15T00:31:25.366Z,50.97
2022-09-15T00:33:59.933Z,50.34
2022-09-15T00:36:30.026Z,50.72
2022-09-15T00:38:59.517Z,50.64
2022-09-15T00:41:27.884Z,50.64
2022-09-15T00:43:57.775Z,50.59
2022-09-15T00:46:29.863Z,50.15
2022-09-15T00:49:11.450Z,50.25
2022-09-15T00:51:47.671Z,50.09
2022-09-15T00:54:19.038Z,50.12
2022-09-15T00:56:50.867Z,49.96
2022-09-15T00:59:22.586Z,49.66
2022-09-15T01:01:58.090Z,49.42
2022-09-15T01:04:26.674Z,49.77
2022-09-15T01:07:03.611Z,49.55
2022-09-15T01:09:36.863Z,49.77
2022-09-15T01:12:06.181Z,49.82
2022-09-15T01:14:34.378Z,49.72
2022-09-15T01:17:14.292Z,49.61
2022-09-15T01:20:16.127Z,49.75
2022-09-15T01:22:58.310Z,49.64
2022-09-15T01:25:45.996Z,49.64
2022-09-15T01:28:52.738Z,49.78
2022-09-15T01:31:26.312Z,49.71
2022-09-15T01:33:58.126Z,50.08
2022-09-15T01:36:32.229Z,49.74
2022-09-15T01:39:05.690Z,49.98
2022-09-15T01:41:39.580Z,50.00
2022-09-15T01:44:10.647Z,50.30
2022-09-15T01:46:47.101Z,50.30
2022-09-15T01:49:19.902Z,50.77
2022-09-15T01:51:52.147Z,50.69
2022-09-15T01:54:23.706Z,51.00
2022-09-15T01:56:51.782Z,51.20
2022-09-15T01:59:19.804Z,51.66
2022-09-15T02:01:57.454Z,51.94
2022-09-15T02:04:31.742Z,52.22
2022-09-15T02:07:06.399Z,51.86
2022-09-15T02:09:39.941Z,51.98
2022-09-15T02:12:14.605Z,51.99
2022-09-15T02:14:49.387Z,51.95
2022-09-15T02:17:21.966Z,52.06
2022-09-15T02:19:55.136Z,52.16
2022-09-15T02:22:27.999Z,52.19
2022-09-15T02:25:02.290Z,52.02
2022-09-15T02:27:34.023Z,51.92
2022-09-15T02:30:06.628Z,52.02
2022-09-15T02:32:41.078Z,52.09
2022-09-15T02:35:11.199Z,52.13
2022-09-15T02:37:40.164Z,52.13
2022-09-15T02:40:09.368Z,51.98
2022-09-15T02:42:39.245Z,52.07
2022-09-15T02:45:08.579Z,51.98
2022-09-15T02:47:38.073Z,52.04
2022-09-15T02:50:07.343Z,52.13
2022-09-15T02:52:35.423Z,52.07
2022-09-15T02:55:03.419Z,52.17
2022-09-15T02:57:31.384Z,52.07
2022-09-15T03:00:15.019Z,52.08
2022-09-15T03:02:46.166Z,51.91
2022-09-15T03:05:15.899Z,51.31
2022-09-15T03:07:44.113Z,51.26
2022-09-15T03:10:14.062Z,51.36
2022-09-15T03:12:44.356Z,50.82
2022-09-15T03:15:14.337Z,50.91
2022-09-15T03:17:46.509Z,51.16
2022-09-15T03:20:16.937Z,50.73
2022-09-15T03:22:45.186Z,50.44
2022-09-15T03:25:13.775Z,50.30
2022-09-15T03:27:42.464Z,50.27
2022-09-15T03:30:12.148Z,50.08
2022-09-15T03:32:40.170Z,49.79
2022-09-15T03:35:11.772Z,49.79
2022-09-15T03:37:39.988Z,49.65
2022-09-15T03:40:10.689Z,49.61
2022-09-15T03:42:38.858Z,49.62
2022-09-15T03:45:07.679Z,49.18
2022-09-15T03:47:35.724Z,49.06
2022-09-15T03:50:03.828Z,49.56
2022-09-15T03:52:33.944Z,49.02
2022-09-15T03:55:01.971Z,49.04
2022-09-15T03:57:29.956Z,49.08
2022-09-15T03:59:57.936Z,49.10
2022-09-15T04:02:26.033Z,48.85
2022-09-15T04:04:54.012Z,48.83
2022-09-15T04:07:21.933Z,48.59
2022-09-15T04:09:51.550Z,48.75
2022-09-15T04:12:19.522Z,48.16
2022-09-15T04:14:47.770Z,48.04
2022-09-15T04:17:16.206Z,48.07
2022-09-15T04:19:44.176Z,47.90
2022-09-15T04:22:16.983Z,48.03
2022-09-15T04:24:46.203Z,47.63
2022-09-15T04:27:15.754Z,47.71
2022-09-15T04:29:44.230Z,47.46
2022-09-15T04:32:12.331Z,47.52
2022-09-15T04:34:41.470Z,47.50
2022-09-15T04:37:09.702Z,47.42
2022-09-15T04:39:37.715Z,47.16
2022-09-15T04:42:07.994Z,47.33
2022-09-15T04:44:37.420Z,47.18
2022-09-15T04:47:05.976Z,47.12
2022-09-15T04:49:34.054Z,47.20
2022-09-15T04:52:03.338Z,46.80
2022-09-15T04:54:34.823Z,47.01
2022-09-15T04:57:03.208Z,46.96
2022-09-15T04:59:31.276Z,47.12
2022-09-15T05:02:01.567Z,47.07
2022-09-15T05:04:29.572Z,47.01
2022-09-15T05:06:57.982Z,47.01
2022-09-15T05:09:26.535Z,47.02
2022-09-15T05:11:54.494Z,47.00
2022-09-15T05:14:22.580Z,47.02
2022-09-15T05:16:50.715Z,46.61
2022-09-15T05:19:20.163Z,46.84
2022-09-15T05:21:48.218Z,46.68
2022-09-15T05:24:16.748Z,46.80
2022-09-15T05:26:44.728Z,46.71
2022-09-15T05:29:13.793Z,46.80
2022-09-15T05:31:41.833Z,46.69
2022-09-15T05:34:11.263Z,46.94
2022-09-15T05:36:40.641Z,46.57
2022-09-15T05:39:08.705Z,46.49
2022-09-15T05:41:36.900Z,46.28
2022-09-15T05:44:04.938Z,46.57
2022-09-15T05:46:32.959Z,46.66
2022-09-15T05:49:00.925Z,46.51
2022-09-15T05:51:30.227Z,46.53
2022-09-15T05:54:00.118Z,46.50
2022-09-15T05:56:28.183Z,46.35
2022-09-15T05:58:56.227Z,46.51
2022-09-15T06:01:26.202Z,46.49
2022-09-15T06:03:55.158Z,46.50
2022-09-15T06:06:24.001Z,46.50
2022-09-15T06:08:58.087Z,46.40
2022-09-15T06:11:29.614Z,46.59
2022-09-15T06:14:00.627Z,46.50
2022-09-15T06:16:29.194Z,46.46
2022-09-15T06:18:57.204Z,46.43
2022-09-15T06:21:27.690Z,46.20
2022-09-15T06:23:56.928Z,46.17
2022-09-15T06:26:25.849Z,46.22
2022-09-15T06:28:57.273Z,46.21
2022-09-15T06:31:26.653Z,46.10
2022-09-15T06:33:56.354Z,46.11
2022-09-15T06:36:26.156Z,46.12
2022-09-15T06:38:54.733Z,45.89
2022-09-15T06:41:23.260Z,45.44
2022-09-15T06:43:51.593Z,45.21
2022-09-15T06:46:23.080Z,45.03
2022-09-15T06:48:52.154Z,44.63
2022-09-15T06:51:22.676Z,44.44
2022-09-15T06:53:51.084Z,44.02
2022-09-15T06:56:21.654Z,43.80
2022-09-15T06:58:53.497Z,43.40
2022-09-15T07:01:25.319Z,43.49
2022-09-15T07:03:54.202Z,43.58
2022-09-15T07:06:23.049Z,43.43
2022-09-15T07:08:53.975Z,43.49
2022-09-15T07:11:22.024Z,43.49
2022-09-15T07:13:51.037Z,43.50
2022-09-15T07:16:21.180Z,43.74
2022-09-15T07:18:53.622Z,43.54
2022-09-15T07:21:22.836Z,43.90
2022-09-15T07:23:52.065Z,43.87
2022-09-15T07:26:22.436Z,43.88
2022-09-15T07:28:53.534Z,43.71
2022-09-15T07:31:23.824Z,43.58
2022-09-15T07:33:53.889Z,43.50
2022-09-15T07:36:22.944Z,43.51
2022-09-15T07:38:52.009Z,43.67
2022-09-15T07:41:22.440Z,43.27
2022-09-15T07:43:51.777Z,42.99
2022-09-15T07:46:21.361Z,43.01
2022-09-15T07:48:51.597Z,43.00
2022-09-15T07:51:23.802Z,42.58
2022-09-15T07:53:53.326Z,42.62
2022-09-15T07:56:30.780Z,42.55
2022-09-15T07:59:01.482Z,42.65
2022-09-15T08:01:30.184Z,42.21
2022-09-15T08:03:59.200Z,42.07
2022-09-15T08:06:45.358Z,41.74
2022-09-15T08:09:23.326Z,41.39
2022-09-15T08:11:52.569Z,41.64
2022-09-15T08:14:23.880Z,41.43
2022-09-15T08:16:52.327Z,41.44
2022-09-15T08:19:23.339Z,41.43
2022-09-15T08:21:57.618Z,40.90
2022-09-15T08:24:25.935Z,41.18
2022-09-15T08:26:54.679Z,41.40
2022-09-15T08:29:29.855Z,41.43
2022-09-15T08:31:58.230Z,41.69
2022-09-15T08:34:28.730Z,41.67
2022-09-15T08:36:58.687Z,41.32
2022-09-15T08:39:28.283Z,41.51
2022-09-15T08:41:58.224Z,41.45
2022-09-15T08:44:42.247Z,41.62
2022-09-15T08:47:16.500Z,41.39
2022-09-15T08:49:55.973Z,41.64
2022-09-15T08:52:31.669Z,41.62
2022-09-15T08:55:02.778Z,41.82
2022-09-15T08:57:33.001Z,41.86
2022-09-15T09:00:05.040Z,42.05
2022-09-15T09:03:07.357Z,42.02
2022-09-15T09:05:59.579Z,41.87
2022-09-15T09:08:50.407Z,42.18
2022-09-15T09:11:27.136Z,42.11
2022-09-15T09:14:07.617Z,42.18
2022-09-15T09:16:50.050Z,41.51
2022-09-15T09:19:43.745Z,41.55
2022-09-15T09:22:16.111Z,42.28
2022-09-15T09:24:52.311Z,42.21
2022-09-15T09:27:26.194Z,42.06
2022-09-15T09:30:02.361Z,41.96
2022-09-15T09:32:44.775Z,41.90
2022-09-15T09:35:26.934Z,41.66
2022-09-15T09:37:57.525Z,41.70
2022-09-15T09:40:28.341Z,41.57
2022-09-15T09:42:56.476Z,41.49
2022-09-15T09:45:24.710Z,41.61
2022-09-15T09:47:59.573Z,41.51
2022-09-15T09:50:36.639Z,41.61
2022-09-15T09:53:23.989Z,41.21
2022-09-15T09:56:24.513Z,41.40
2022-09-15T09:58:53.997Z,41.42
2022-09-15T10:01:25.121Z,41.18
2022-09-15T10:04:29.933Z,41.20
2022-09-15T10:06:58.326Z,41.08
2022-09-15T10:09:31.201Z,41.05
2022-09-15T10:12:05.089Z,41.04
2022-09-15T10:14:36.270Z,40.82
2022-09-15T10:17:10.039Z,40.89
2022-09-15T10:19:47.933Z,41.31
2022-09-15T10:22:42.912Z,40.59
2022-09-15T10:25:55.198Z,40.99
2022-09-15T10:28:28.855Z,40.44
2022-09-15T10:31:11.390Z,40.86
2022-09-15T10:33:45.054Z,40.76
2022-09-15T10:36:16.229Z,40.40
2022-09-15T10:47:28.206Z,40.42
2022-09-15T10:50:10.163Z,40.24
2022-09-15T10:52:54.150Z,39.61
2022-09-15T10:55:52.346Z,39.35
2022-09-15T11:02:06.236Z,39.56
2022-09-15T11:05:17.942Z,40.03
2022-09-15T11:08:03.555Z,40.95
2022-09-15T11:10:53.200Z,41.64
2022-09-15T11:13:31.028Z,41.99
2022-09-15T11:16:24.268Z,41.97
2022-09-15T11:19:08.101Z,42.16
2022-09-15T11:21:54.344Z,42.54
2022-09-15T11:27:43.031Z,43.25
2022-09-15T11:30:21.875Z,43.57
2022-09-15T11:32:59.473Z,43.22
2022-09-15T11:35:40.807Z,42.57
2022-09-15T11:38:51.164Z,42.78
2022-09-15T11:41:25.886Z,42.76
2022-09-15T11:44:06.262Z,42.56
2022-09-15T11:46:51.916Z,42.10
2022-09-15T11:49:23.990Z,42.08
2022-09-15T11:51:58.068Z,41.65
2022-09-15T11:54:37.068Z,40.62
2022-09-15T11:57:06.148Z,40.55
2022-09-15T11:59:43.418Z,40.69
2022-09-15T12:02:23.766Z,40.20
2022-09-15T12:05:05.071Z,39.86
2022-09-15T12:07:35.964Z,39.88
2022-09-15T12:10:16.407Z,39.59
2022-09-15T12:13:08.007Z,39.18
2022-09-15T12:15:36.826Z,38.71
2022-09-15T12:18:37.781Z,38.48
2022-09-15T12:21:17.912Z,38.43
2022-09-15T12:23:54.698Z,38.81
2022-09-15T12:26:29.291Z,38.73
2022-09-15T12:31:46.682Z,38.85
2022-09-15T12:35:01.368Z,39.53
2022-09-15T12:38:20.376Z,38.64
2022-09-15T12:41:05.300Z,39.13
2022-09-15T12:44:03.951Z,39.15
2022-09-15T12:52:59.913Z,38.19
2022-09-15T12:55:32.037Z,38.32
2022-09-15T12:58:16.756Z,37.72
2022-09-15T13:01:07.176Z,37.21
2022-09-15T13:04:30.253Z,37.40
2022-09-15T13:08:05.790Z,37.57
2022-09-15T13:14:27.562Z,37.06
2022-09-15T13:23:56.753Z,37.34
2022-09-15T13:26:58.976Z,36.84
2022-09-15T13:29:34.384Z,36.22
2022-09-15T13:32:12.204Z,35.92
2022-09-15T13:35:29.052Z,35.91
2022-09-15T13:38:54.737Z,36.42
2022-09-15T13:45:45.880Z,37.82
2022-09-15T13:48:34.942Z,38.04
2022-09-15T13:51:14.688Z,38.50
2022-09-15T13:53:50.311Z,38.12
2022-09-15T13:56:24.830Z,38.38
2022-09-15T13:58:56.383Z,37.97
2022-09-15T14:01:31.583Z,37.75
2022-09-15T14:04:03.122Z,37.30
2022-09-15T14:06:42.878Z,36.39
2022-09-15T14:09:17.458Z,36.62
2022-09-15T14:11:54.802Z,37.46
2022-09-15T14:14:41.479Z,36.31
2022-09-15T14:17:24.243Z,34.91
2022-09-15T14:19:56.569Z,33.05
2022-09-15T14:22:29.328Z,32.79
2022-09-15T14:24:58.941Z,33.00
2022-09-15T14:27:29.209Z,33.45
2022-09-15T14:30:54.968Z,34.38
2022-09-15T14:33:38.203Z,35.14
2022-09-15T14:36:15.195Z,35.97
2022-09-15T14:41:52.475Z,36.77
2022-09-15T14:51:03.224Z,36.36
2022-09-15T14:53:31.987Z,35.99
2022-09-15T14:56:08.231Z,36.00
2022-09-15T14:58:41.821Z,36.17
2022-09-15T15:01:16.844Z,36.94
2022-09-15T15:03:51.034Z,36.74
2022-09-15T15:06:30.783Z,37.32
2022-09-15T15:09:07.625Z,37.90
2022-09-15T15:11:45.303Z,38.65
2022-09-15T15:14:20.558Z,38.75
2022-09-15T15:16:56.580Z,39.26
2022-09-15T15:19:36.851Z,40.25
2022-09-15T15:22:20.342Z,40.25
2022-09-15T15:24:51.534Z,40.71
2022-09-15T15:27:27.724Z,40.99
2022-09-15T15:29:58.225Z,41.21
2022-09-15T15:32:27.146Z,41.01
2022-09-15T15:35:04.486Z,41.36
2022-09-15T15:43:27.798Z,41.02
2022-09-15T15:46:01.025Z,40.89
2022-09-15T15:48:36.908Z,40.63
2022-09-15T15:51:07.174Z,40.55
2022-09-15T15:53:37.481Z,40.76
2022-09-15T15:56:10.103Z,40.92
2022-09-15T15:58:38.688Z,41.32
2022-09-15T16:01:07.518Z,41.28
2022-09-15T16:03:35.837Z,41.51
2022-09-15T16:06:04.585Z,41.65
2022-09-15T16:08:35.321Z,41.03
2022-09-15T16:11:04.818Z,41.03
2022-09-15T16:13:34.519Z,41.13
2022-09-15T16:16:03.879Z,41.45
2022-09-15T16:18:32.373Z,41.26
2022-09-15T16:21:00.532Z,41.22
2022-09-15T16:23:28.599Z,41.49
2022-09-15T16:26:05.296Z,41.22
2022-09-15T16:28:35.008Z,41.31
2022-09-15T16:31:03.286Z,41.45
2022-09-15T16:33:35.933Z,41.54
2022-09-15T16:36:08.270Z,41.53
2022-09-15T16:38:37.746Z,41.08
2022-09-15T16:41:12.548Z,40.93
2022-09-15T16:44:05.277Z,41.29
2022-09-15T16:46:33.532Z,41.42
2022-09-15T16:49:03.363Z,41.41
2022-09-15T16:51:38.919Z,41.87
2022-09-15T16:54:16.121Z,42.10
2022-09-15T16:56:45.942Z,42.06
2022-09-15T16:59:43.522Z,42.25
2022-09-15T17:02:27.961Z,42.28
2022-09-15T17:04:56.625Z,42.28
2022-09-15T17:07:25.633Z,41.88
2022-09-15T17:09:56.753Z,41.92
2022-09-15T17:12:40.208Z,41.85
2022-09-15T17:15:31.551Z,41.84
2022-09-15T17:18:11.156Z,41.71
2022-09-15T17:20:44.558Z,41.41
2022-09-15T17:26:31.324Z,41.13
2022-09-15T17:29:04.220Z,41.13
2022-09-15T17:31:35.903Z,40.75
2022-09-15T17:34:04.920Z,40.92
2022-09-15T17:36:37.468Z,40.92
2022-09-15T17:39:06.151Z,40.15
2022-09-15T17:44:21.929Z,40.12
2022-09-15T17:46:55.478Z,40.38
2022-09-15T17:49:46.178Z,40.51
2022-09-15T17:52:17.731Z,40.59
2022-09-15T17:54:47.555Z,40.65
2022-09-15T17:57:15.642Z,40.52
2022-09-15T17:59:56.802Z,41.12
2022-09-15T18:02:40.018Z,41.02
2022-09-15T18:08:17.045Z,40.59
2022-09-15T18:13:45.662Z,40.59
2022-09-15T18:16:19.593Z,40.35
2022-09-15T18:18:53.405Z,40.26
2022-09-15T18:29:33.649Z,41.20
2022-09-15T18:32:09.371Z,41.33
2022-09-15T18:34:49.490Z,41.37
2022-09-15T18:37:19.751Z,41.65
2022-09-15T18:39:49.465Z,41.96
2022-09-15T18:42:17.997Z,41.82
2022-09-15T18:44:46.685Z,41.86
2022-09-15T18:47:14.949Z,41.67
2022-09-15T18:49:47.060Z,41.87
2022-09-15T18:52:16.255Z,41.72
2022-09-15T18:54:44.568Z,41.86
2022-09-15T18:57:14.181Z,41.92
2022-09-15T18:59:42.973Z,42.05
2022-09-15T19:02:14.550Z,42.26
2022-09-15T19:04:47.508Z,42.14
2022-09-15T19:07:18.480Z,42.30
2022-09-15T19:10:03.720Z,42.19
2022-09-15T19:12:38.489Z,42.42
2022-09-15T19:15:12.358Z,42.71
2022-09-15T19:17:59.396Z,42.91
2022-09-15T19:20:31.615Z,42.91
2022-09-15T19:23:15.576Z,42.87
2022-09-15T19:28:34.986Z,43.49
2022-09-15T19:31:07.341Z,43.58
2022-09-15T19:33:37.872Z,43.74
2022-09-15T19:36:27.549Z,44.06
2022-09-15T19:39:17.847Z,44.10
2022-09-15T19:41:46.474Z,44.20
2022-09-15T19:44:16.985Z,43.99
2022-09-15T19:46:48.306Z,44.33
2022-09-15T19:49:20.137Z,44.27
2022-09-15T19:52:06.677Z,44.11
2022-09-15T19:54:43.618Z,44.18
2022-09-15T19:57:22.213Z,43.88
2022-09-15T19:59:53.873Z,44.37
2022-09-15T20:02:22.644Z,44.02
2022-09-15T20:04:54.307Z,44.08
2022-09-15T20:07:26.013Z,44.28
2022-09-15T20:09:58.346Z,43.93
2022-09-15T20:12:37.376Z,44.08
2022-09-15T20:15:07.069Z,43.93
2022-09-15T20:17:35.377Z,44.26
2022-09-15T20:20:07.326Z,44.20
2022-09-15T20:22:35.905Z,44.25
2022-09-15T20:25:07.757Z,44.29
2022-09-15T20:27:41.269Z,44.40
2022-09-15T20:30:11.071Z,44.48
2022-09-15T20:32:39.270Z,44.23
2022-09-15T20:35:12.498Z,44.24
2022-09-15T20:37:41.025Z,44.06
2022-09-15T20:40:11.305Z,44.11
2022-09-15T20:42:39.490Z,44.02
2022-09-15T20:45:08.668Z,44.14
2022-09-15T20:47:36.942Z,44.18
2022-09-15T20:50:05.527Z,44.07
2022-09-15T20:52:38.207Z,43.93
2022-09-15T20:55:10.656Z,43.92
2022-09-15T20:57:40.399Z,44.06
2022-09-15T21:00:10.516Z,43.63
2022-09-15T21:02:39.224Z,43.76
2022-09-15T21:05:07.690Z,43.60
2022-09-15T21:07:35.730Z,43.71
2022-09-15T21:10:03.763Z,43.37
2022-09-15T21:12:31.959Z,43.41
2022-09-15T21:15:02.313Z,43.29
2022-09-15T21:17:30.507Z,43.41
2022-09-15T21:19:58.622Z,43.51
2022-09-15T21:22:26.691Z,43.45
2022-09-15T21:24:56.107Z,43.81
2022-09-15T21:27:30.730Z,43.70
2022-09-15T21:29:59.192Z,43.56
2022-09-15T21:32:29.967Z,43.86
2022-09-15T21:34:58.190Z,43.62
2022-09-15T21:37:28.054Z,44.00
2022-09-15T21:39:57.051Z,43.66
2022-09-15T21:42:25.694Z,43.68
2022-09-15T21:44:54.617Z,44.23
2022-09-15T21:47:22.842Z,44.07
2022-09-15T21:49:53.055Z,44.15
2022-09-15T21:52:21.779Z,43.91
2022-09-15T21:54:49.802Z,44.06
2022-09-15T21:57:18.134Z,44.24
2022-09-15T21:59:46.749Z,44.26
2022-09-15T22:02:17.531Z,44.16
2022-09-15T22:04:46.014Z,44.17
2022-09-15T22:07:19.776Z,44.29
2022-09-15T22:09:48.387Z,44.01
2022-09-15T22:12:16.468Z,44.33
2022-09-15T22:14:44.585Z,44.54
2022-09-15T22:17:12.684Z,44.45
2022-09-15T22:19:40.846Z,44.72
2022-09-15T22:22:09.241Z,44.63
2022-09-15T22:24:39.041Z,44.45
2022-09-15T22:27:07.226Z,44.63
2022-09-15T22:29:35.257Z,44.32
2022-09-15T22:32:03.813Z,44.38
2022-09-15T22:34:31.937Z,44.05
2022-09-15T22:37:00.130Z,44.15
2022-09-15T22:39:50.309Z,44.13
2022-09-15T22:42:18.838Z,44.35
2022-09-15T22:44:47.170Z,44.41
2022-09-15T22:47:15.490Z,44.16
2022-09-15T22:49:43.843Z,44.36
2022-09-15T22:52:13.311Z,44.31
2022-09-15T22:54:41.345Z,44.32
2022-09-15T22:57:09.486Z,44.04
2022-09-15T22:59:38.980Z,43.95
2022-09-15T23:02:07.234Z,43.65
2022-09-15T23:04:35.336Z,43.74
2022-09-15T23:07:03.511Z,43.87
2022-09-15T23:09:31.864Z,43.89
2022-09-15T23:12:00.105Z,43.64
2022-09-15T23:14:28.473Z,43.79
2022-09-15T23:16:58.239Z,43.64
2022-09-15T23:19:26.356Z,43.59
2022-09-15T23:21:54.428Z,43.92
2022-09-15T23:24:22.553Z,43.67
2022-09-15T23:26:50.539Z,43.36
2022-09-15T23:29:18.798Z,43.74
2022-09-15T23:31:47.014Z,43.82
2022-09-15T23:34:16.588Z,43.72
2022-09-15T23:36:44.798Z,44.00
2022-09-15T23:39:12.833Z,44.00
2022-09-15T23:41:41.405Z,43.83
2022-09-15T23:44:09.515Z,44.41
2022-09-15T23:46:37.704Z,44.22
2022-09-15T23:49:05.835Z,44.24
2022-09-15T23:51:35.933Z,44.39
2022-09-15T23:54:04.764Z,44.77
2022-09-15T23:56:33.977Z,44.53
2022-09-15T23:59:01.945Z,44.51
